Time;durP1;ratioP1;P1;durP2;ratioP2;P2;SDS_P1;SDS_P2;PMS_P1;PMS_P2;Temp;Humidity;BMP_temperature;BMP_pressure;BME280_temperature;BME280_humidity;BME280_pressure;Samples;Min_cycle;Max_cycle;Signal;HPM_P1;HPM_P2
2023/12/31 00:02:21;;;;;;;2.80;1.40;;;;;;;5.68;74.46;100122.17;108013;1255;73851;-71
2023/12/31 00:04:48;;;;;;;2.40;1.30;;;;;;;5.73;74.17;100121.21;108020;1257;71462;-71
2023/12/31 00:07:19;;;;;;;2.70;1.40;;;;;;;5.78;73.67;100119.40;107987;1256;70077;-71
2023/12/31 00:09:48;;;;;;;2.80;1.50;;;;;;;5.82;73.21;100116.20;107989;1254;60339;-72
2023/12/31 00:12:17;;;;;;;2.80;1.50;;;;;;;5.85;72.90;100123.68;107988;1254;60364;-71
2023/12/31 00:14:45;;;;;;;3.20;1.50;;;;;;;5.85;72.52;100124.14;108100;1256;74128;-69
2023/12/31 00:17:14;;;;;;;3.10;1.60;;;;;;;5.85;72.24;100129.09;108028;1257;72740;-69
2023/12/31 00:19:42;;;;;;;3.90;1.60;;;;;;;5.86;72.02;100128.20;108097;1255;71390;-69
2023/12/31 00:22:10;;;;;;;3.30;1.50;;;;;;;5.86;71.99;100131.70;108050;1257;59314;-69
2023/12/31 00:24:38;;;;;;;3.00;1.40;;;;;;;5.88;71.82;100129.40;108148;1255;60008;-69
2023/12/31 00:27:07;;;;;;;2.20;1.20;;;;;;;5.88;71.79;100131.99;108015;1256;74037;-72
2023/12/31 00:29:44;;;;;;;5.10;1.20;;;;;;;5.83;71.78;100132.02;108013;1257;73734;-71
2023/12/31 00:32:12;;;;;;;2.80;1.40;;;;;;;5.77;71.98;100128.46;108022;1257;71224;-71
2023/12/31 00:34:40;;;;;;;3.60;1.30;;;;;;;5.70;72.02;100127.84;108004;1257;60300;-71
2023/12/31 00:37:08;;;;;;;3.40;1.40;;;;;;;5.61;72.44;100120.51;108052;1256;60550;-70
2023/12/31 00:39:36;;;;;;;2.70;1.40;;;;;;;5.56;72.76;100117.59;108088;1259;75936;-71
2023/12/31 00:42:05;;;;;;;3.40;1.40;;;;;;;5.50;73.10;100120.92;108006;1256;71527;-70
2023/12/31 00:44:33;;;;;;;2.50;1.30;;;;;;;5.44;73.41;100124.01;107947;1257;72433;-71
2023/12/31 00:47:01;;;;;;;3.60;1.70;;;;;;;5.37;73.86;100126.90;107923;1257;60434;-71
2023/12/31 00:49:30;;;;;;;3.30;1.50;;;;;;;5.32;74.47;100128.01;108018;1256;60284;-71
2023/12/31 00:51:57;;;;;;;3.90;1.70;;;;;;;5.29;75.04;100129.05;107855;1257;73881;-70
2023/12/31 00:54:25;;;;;;;3.40;1.70;;;;;;;5.27;75.43;100127.86;107956;1257;70310;-70
2023/12/31 00:56:53;;;;;;;3.40;1.30;;;;;;;5.28;75.70;100129.31;107963;1257;72460;-71
2023/12/31 00:59:20;;;;;;;4.50;1.60;;;;;;;5.30;75.82;100132.16;107992;1254;60327;-73
2023/12/31 01:01:50;;;;;;;2.80;1.40;;;;;;;5.34;75.77;100132.50;107995;1255;60280;-71
2023/12/31 01:04:20;;;;;;;3.00;1.50;;;;;;;5.38;75.73;100126.71;108045;1259;72677;-71
2023/12/31 01:06:48;;;;;;;3.10;1.50;;;;;;;5.42;75.46;100131.73;108069;1257;71138;-70
2023/12/31 01:09:16;;;;;;;2.80;1.40;;;;;;;5.45;75.36;100143.54;107818;1262;74238;-70
2023/12/31 01:11:43;;;;;;;3.10;1.60;;;;;;;5.45;75.18;100139.25;107891;1254;60674;-70
2023/12/31 01:14:16;;;;;;;3.10;1.30;;;;;;;5.46;75.17;100135.02;108076;1254;60626;-70
2023/12/31 01:16:49;;;;;;;3.50;1.80;;;;;;;5.48;75.08;100131.46;107976;1256;73807;-72
2023/12/31 01:19:26;;;;;;;3.80;1.40;;;;;;;5.49;75.20;100132.82;107944;1257;74627;-72
2023/12/31 01:21:55;;;;;;;3.40;1.60;;;;;;;5.51;75.18;100133.02;107994;1257;72523;-70
2023/12/31 01:24:23;;;;;;;3.60;1.80;;;;;;;5.50;75.12;100138.66;107781;1257;60406;-71
2023/12/31 01:26:51;;;;;;;3.90;1.70;;;;;;;5.51;75.31;100137.15;108022;1254;60254;-71
2023/12/31 01:29:18;;;;;;;4.20;1.90;;;;;;;5.53;75.31;100135.66;107841;1254;72707;-71
2023/12/31 01:31:46;;;;;;;4.00;1.70;;;;;;;5.54;75.40;100135.77;107991;1257;72869;-71
2023/12/31 01:34:14;;;;;;;3.50;1.80;;;;;;;5.56;75.50;100132.36;107939;1254;72693;-71
2023/12/31 01:36:42;;;;;;;4.10;1.90;;;;;;;5.56;75.51;100132.15;107809;1257;60286;-73
2023/12/31 01:39:10;;;;;;;4.90;2.10;;;;;;;5.55;75.69;100138.40;107873;1260;60289;-71
2023/12/31 01:41:38;;;;;;;4.10;2.00;;;;;;;5.57;75.75;100147.98;107877;1255;71584;-70
2023/12/31 01:44:06;;;;;;;3.70;1.80;;;;;;;5.58;75.78;100155.67;107982;1257;71555;-69
2023/12/31 01:46:34;;;;;;;4.40;1.90;;;;;;;5.60;75.86;100154.88;107933;1259;72549;-69
2023/12/31 01:49:02;;;;;;;4.90;2.00;;;;;;;5.61;75.88;100150.75;108003;1256;60273;-70
2023/12/31 01:51:30;;;;;;;4.00;2.00;;;;;;;5.62;75.88;100150.87;107847;1261;60441;-69
2023/12/31 01:54:00;;;;;;;4.70;1.90;;;;;;;5.63;75.83;100149.11;107864;1257;73817;-70
2023/12/31 01:56:28;;;;;;;4.20;1.80;;;;;;;5.62;75.91;100152.48;107991;1255;73005;-70
2023/12/31 01:58:56;;;;;;;4.80;2.30;;;;;;;5.60;76.05;100150.21;107819;1257;71414;-70
2023/12/31 02:01:25;;;;;;;5.30;2.50;;;;;;;5.57;76.40;100151.37;107832;1255;60855;-72
2023/12/31 02:03:52;;;;;;;3.90;2.00;;;;;;;5.59;76.63;100151.88;107940;1254;60021;-71
2023/12/31 02:06:20;;;;;;;3.50;2.20;;;;;;;5.60;76.62;100148.27;108082;1256;74938;-71
2023/12/31 02:08:48;;;;;;;6.20;1.80;;;;;;;5.60;76.82;100145.92;107931;1257;71456;-71
2023/12/31 02:11:16;;;;;;;4.60;2.70;;;;;;;5.60;76.94;100148.67;107984;1257;74942;-71
2023/12/31 02:13:44;;;;;;;4.50;2.50;;;;;;;5.60;76.91;100144.55;108019;1257;61031;-68
2023/12/31 02:16:16;;;;;;;4.30;2.00;;;;;;;5.60;77.06;100141.58;108070;1254;60486;-70
2023/12/31 02:18:47;;;;;;;4.10;2.20;;;;;;;5.59;77.18;100138.74;108132;1257;72377;-71
2023/12/31 02:21:15;;;;;;;6.60;2.50;;;;;;;5.56;77.39;100140.23;107923;1257;71769;-71
2023/12/31 02:23:43;;;;;;;3.80;2.20;;;;;;;5.51;77.52;100144.30;107856;1257;74786;-70
2023/12/31 02:26:11;;;;;;;5.10;2.20;;;;;;;5.47;77.82;100153.36;108014;1254;59837;-71
2023/12/31 02:28:39;;;;;;;4.80;2.20;;;;;;;5.38;78.22;100158.82;108064;1256;60322;-70
2023/12/31 02:31:07;;;;;;;4.40;1.90;;;;;;;5.31;78.76;100162.90;108160;1257;73649;-69
2023/12/31 02:33:35;;;;;;;3.60;2.00;;;;;;;5.25;79.35;100163.52;107937;1254;71665;-70
